Time;durP1;ratioP1;P1;durP2;ratioP2;P2;SDS_P1;SDS_P2;PMS_P1;PMS_P2;Temp;Humidity;BMP_temperature;BMP_pressure;BME280_temperature;BME280_humidity;BME280_pressure;Samples;Min_cycle;Max_cycle;Signal;HPM_P1;HPM_P2
2022/12/31 00:01:04;;;;;;;1.37;0.63;;;11.60;99.90;;;;;;5026171;28;20080;-89
2022/12/31 00:03:29;;;;;;;1.83;0.65;;;11.50;99.90;;;;;;5023968;28;20124;-88
2022/12/31 00:05:55;;;;;;;1.20;0.50;;;11.60;99.90;;;;;;5020569;28;20109;-89
2022/12/31 00:08:20;;;;;;;0.90;0.50;;;11.70;99.90;;;;;;5022234;28;20021;-89
2022/12/31 00:10:46;;;;;;;0.65;0.50;;;11.70;99.90;;;;;;5021809;28;20029;-89
2022/12/31 00:13:12;;;;;;;0.95;0.47;;;11.70;99.90;;;;;;5022969;28;20033;-89
2022/12/31 00:15:39;;;;;;;0.40;0.40;;;11.80;99.90;;;;;;5029360;28;20017;-89
2022/12/31 00:18:04;;;;;;;1.67;0.50;;;11.80;99.90;;;;;;5026872;28;20390;-90
2022/12/31 00:20:30;;;;;;;0.50;0.50;;;11.90;99.90;;;;;;5022659;28;20025;-90
2022/12/31 00:22:55;;;;;;;1.77;0.60;;;11.90;99.90;;;;;;5028133;28;20273;-89
2022/12/31 00:25:21;;;;;;;0.55;0.55;;;11.90;99.90;;;;;;5026129;28;20020;-89
2022/12/31 00:27:47;;;;;;;1.95;0.50;;;11.90;99.90;;;;;;5026648;28;20025;-88
2022/12/31 00:30:13;;;;;;;0.93;0.40;;;12.00;99.90;;;;;;5024942;28;20018;-88
2022/12/31 00:32:38;;;;;;;0.53;0.50;;;12.10;99.90;;;;;;5023032;28;20025;-89
2022/12/31 00:35:05;;;;;;;0.60;0.40;;;12.00;99.90;;;;;;5026062;28;20096;-90
2022/12/31 00:37:30;;;;;;;2.10;0.57;;;12.10;99.90;;;;;;5028463;28;20030;-89
2022/12/31 00:39:56;;;;;;;0.50;0.40;;;12.10;99.90;;;;;;5020590;28;20044;-89
2022/12/31 00:42:22;;;;;;;0.40;0.40;;;12.30;99.90;;;;;;5024573;28;20366;-89
2022/12/31 00:44:47;;;;;;;0.68;0.50;;;12.30;99.90;;;;;;5027215;28;20026;-90
2022/12/31 00:47:13;;;;;;;0.70;0.60;;;12.30;99.90;;;;;;5020972;28;20018;-90
2022/12/31 00:49:39;;;;;;;0.40;0.40;;;12.50;99.90;;;;;;5022311;28;20026;-90
2022/12/31 00:52:04;;;;;;;0.40;0.40;;;12.60;99.90;;;;;;5022186;28;20041;-90
2022/12/31 00:54:30;;;;;;;0.50;0.43;;;12.60;99.90;;;;;;5022254;28;20048;-90
2022/12/31 00:56:55;;;;;;;0.50;0.40;;;12.60;99.90;;;;;;5025360;28;20083;-89
2022/12/31 00:59:21;;;;;;;1.30;0.50;;;12.70;99.90;;;;;;5026914;28;20021;-88
2022/12/31 01:01:46;;;;;;;0.50;0.50;;;12.70;99.90;;;;;;5024176;28;20526;-90
2022/12/31 01:04:15;;;;;;;0.40;0.40;;;12.80;99.90;;;;;;5027876;28;20374;-89
2022/12/31 01:06:42;;;;;;;0.45;0.45;;;12.90;99.90;;;;;;5021450;28;20024;-90
2022/12/31 01:09:09;;;;;;;2.15;0.60;;;12.90;99.90;;;;;;5023142;28;20021;-90
2022/12/31 01:11:34;;;;;;;1.02;0.50;;;12.90;99.90;;;;;;5027093;28;20130;-90
2022/12/31 01:14:06;;;;;;;0.52;0.52;;;13.00;99.90;;;;;;5026278;28;20025;-90
2022/12/31 01:16:40;;;;;;;0.70;0.50;;;13.00;99.90;;;;;;5023471;28;20430;-91
2022/12/31 01:19:15;;;;;;;0.70;0.70;;;13.00;99.90;;;;;;5025084;28;20056;-89
2022/12/31 01:21:42;;;;;;;1.10;0.70;;;13.00;99.90;;;;;;5025102;28;20072;-89
2022/12/31 01:24:09;;;;;;;0.60;0.50;;;12.90;99.90;;;;;;5023627;28;20033;-89
2022/12/31 01:26:35;;;;;;;0.57;0.52;;;12.90;99.90;;;;;;5017626;28;20784;-90
2022/12/31 01:29:01;;;;;;;0.40;0.40;;;12.90;99.90;;;;;;5027067;28;20014;-91
2022/12/31 01:31:27;;;;;;;0.60;0.60;;;12.90;99.90;;;;;;5021124;28;20034;-90
2022/12/31 01:33:53;;;;;;;0.80;0.68;;;12.90;99.90;;;;;;5030526;28;20026;-91
2022/12/31 01:36:22;;;;;;;0.40;0.40;;;12.90;99.90;;;;;;5023464;28;20108;-89
2022/12/31 01:38:48;;;;;;;0.80;0.47;;;12.80;99.90;;;;;;5025898;28;20030;-90
2022/12/31 01:41:17;;;;;;;0.73;0.50;;;12.80;99.90;;;;;;5022541;28;20766;-90
2022/12/31 01:43:52;;;;;;;1.02;0.60;;;12.80;99.90;;;;;;5021873;28;20030;-90
2022/12/31 01:46:31;;;;;;;0.43;0.40;;;12.80;99.90;;;;;;5027223;28;20016;-90
2022/12/31 01:49:02;;;;;;;1.85;0.50;;;12.80;99.90;;;;;;5018589;28;20090;-90
2022/12/31 01:51:32;;;;;;;0.43;0.43;;;12.80;99.90;;;;;;5025062;28;20028;-89
2022/12/31 01:53:59;;;;;;;0.60;0.57;;;12.80;99.90;;;;;;5028148;28;20022;-90
2022/12/31 01:56:25;;;;;;;0.80;0.63;;;12.70;99.90;;;;;;5018561;28;20030;-89
2022/12/31 01:58:54;;;;;;;1.08;0.70;;;12.70;99.90;;;;;;5025236;28;20368;-89
2022/12/31 02:01:25;;;;;;;2.47;0.70;;;12.70;99.90;;;;;;5021672;28;20037;-90
2022/12/31 02:03:51;;;;;;;0.93;0.75;;;12.70;99.90;;;;;;5021964;28;20022;-89
2022/12/31 02:06:22;;;;;;;1.08;0.63;;;12.70;99.90;;;;;;5023517;28;20434;-89
2022/12/31 02:08:49;;;;;;;0.50;0.50;;;12.60;99.90;;;;;;5022789;28;20053;-89
2022/12/31 02:11:31;;;;;;;0.63;0.60;;;12.60;99.90;;;;;;5028044;28;20022;-91
2022/12/31 02:14:02;;;;;;;0.98;0.52;;;12.60;99.90;;;;;;5022082;28;20017;-89
2022/12/31 02:16:44;;;;;;;1.05;0.55;;;12.60;99.90;;;;;;5026398;28;20033;-90
2022/12/31 02:19:48;;;;;;;0.52;0.40;;;12.60;99.90;;;;;;5024285;28;20050;-91
2022/12/31 02:22:23;;;;;;;1.17;0.70;;;12.60;99.90;;;;;;5025691;28;20048;-90
2022/12/31 02:24:51;;;;;;;0.80;0.60;;;12.50;99.90;;;;;;5023618;28;20109;-90
2022/12/31 02:27:32;;;;;;;1.60;0.68;;;12.50;99.90;;;;;;5021293;28;20379;-91
2022/12/31 02:30:05;;;;;;;0.50;0.50;;;12.60;99.90;;;;;;5015164;28;20489;-89
2022/12/31 02:32:40;;;;;;;0.50;0.50;;;12.60;99.90;;;;;;5014125;28;20032;-89
2022/12/31 02:35:23;;;;;;;0.47;0.40;;;12.60;99.90;;;;;;5016052;28;20033;-89
2022/12/31 02:37:53;;;;;;;1.75;0.50;;;12.60;99.90;;;;;;5020657;28;20034;-90
2022/12/31 02:40:21;;;;;;;1.10;0.50;;;12.50;99.90;;;;;;5016498;28;20105;-90
2022/12/31 02:42:46;;;;;;;0.30;0.30;;;12.50;99.90;;;;;;5020599;28;20049;-90
2022/12/31 02:45:16;;;;;;;0.43;0.40;;;12.50;99.90;;;;;;5018591;28;20463;-89
2022/12/31 02:48:20;;;;;;;0.55;0.30;;;12.40;99.90;;;;;;5021790;28;20067;-91
2022/12/31 02:50:59;;;;;;;0.50;0.50;;;12.50;99.90;;;;;;5016748;28;20018;-89
2022/12/31 02:53:43;;;;;;;0.52;0.43;;;12.40;99.90;;;;;;5022103;28;20420;-89
2022/12/31 02:56:50;;;;;;;1.60;0.43;;;12.40;99.90;;;;;;5027093;28;20033;-89
2022/12/31 03:02:18;;;;;;;0.77;0.45;;;12.40;99.90;;;;;;5024996;28;20104;-89
2022/12/31 03:04:52;;;;;;;0.63;0.50;;;12.40;99.90;;;;;;5038498;28;20404;-90
2022/12/31 03:07:30;;;;;;;1.98;0.50;;;12.40;99.90;;;;;;5024949;28;20864;-90
2022/12/31 03:09:57;;;;;;;0.30;0.30;;;12.40;99.90;;;;;;5018526;28;20053;-91
2022/12/31 03:15:20;;;;;;;0.50;0.50;;;12.40;99.90;;;;;;5024688;28;20904;-89
2022/12/31 03:17:50;;;;;;;0.57;0.40;;;12.40;99.90;;;;;;5023197;28;20159;-89
2022/12/31 03:23:02;;;;;;;1.00;0.52;;;12.50;99.90;;;;;;5022558;28;20077;-90
2022/12/31 03:25:40;;;;;;;0.40;0.40;;;12.50;99.90;;;;;;5021017;28;20072;-90
2022/12/31 03:28:11;;;;;;;0.40;0.40;;;12.60;99.90;;;;;;5018013;28;20208;-90
2022/12/31 03:30:38;;;;;;;2.38;0.55;;;12.60;99.90;;;;;;5027163;28;20422;-91
2022/12/31 03:33:05;;;;;;;0.55;0.45;;;12.60;99.90;;;;;;5031957;28;20033;-89
2022/12/31 03:35:33;;;;;;;1.35;0.50;;;12.60;99.90;;;;;;5017535;28;20109;-90
2022/12/31 03:37:59;;;;;;;0.50;0.50;;;12.60;99.90;;;;;;5021690;28;20088;-90
2022/12/31 03:40:26;;;;;;;6.68;1.77;;;12.60;99.90;;;;;;5025242;28;20025;-90
2022/12/31 03:42:51;;;;;;;0.68;0.30;;;12.70;99.90;;;;;;5027889;28;20105;-89
2022/12/31 03:45:18;;;;;;;0.57;0.52;;;12.70;99.90;;;;;;5024759;28;20494;-90
2022/12/31 03:47:43;;;;;;;0.32;0.30;;;12.70;99.90;;;;;;5033019;28;20022;-90
2022/12/31 03:50:11;;;;;;;0.50;0.50;;;12.80;99.90;;;;;;5032273;28;20516;-89
2022/12/31 03:52:37;;;;;;;1.65;0.40;;;12.80;99.90;;;;;;5024998;28;20398;-88
2022/12/31 03:55:03;;;;;;;0.40;0.40;;;12.80;99.90;;;;;;5020540;28;20022;-89
2022/12/31 03:57:30;;;;;;;0.55;0.55;;;12.70;99.90;;;;;;5032174;28;20132;-89
2022/12/31 03:59:55;;;;;;;0.95;0.40;;;12.80;99.90;;;;;;5027022;28;20026;-89
2022/12/31 04:02:21;;;;;;;1.42;0.40;;;12.90;99.90;;;;;;5033500;28;20048;-89
2022/12/31 04:04:46;;;;;;;0.47;0.47;;;13.00;99.90;;;;;;5033784;28;20026;-89
2022/12/31 04:07:12;;;;;;;0.40;0.40;;;13.10;99.90;;;;;;5033734;28;20048;-89
2022/12/31 04:09:37;;;;;;;0.50;0.50;;;13.10;99.90;;;;;;5028666;28;20026;-89
2022/12/31 04:12:03;;;;;;;0.50;0.40;;;13.20;99.90;;;;;;5040048;28;20064;-89
2022/12/31 04:14:28;;;;;;;0.40;0.40;;;13.30;99.90;;;;;;5024937;28;20029;-89
2022/12/31 04:16:54;;;;;;;1.55;0.70;;;13.30;99.90;;;;;;5034010;28;20099;-89
2022/12/31 04:19:19;;;;;;;0.55;0.43;;;13.30;99.90;;;;;;5031937;28;20061;-90
2022/12/31 04:21:45;;;;;;;0.40;0.40;;;13.30;99.90;;;;;;5041133;28;20044;-90
2022/12/31 04:24:11;;;;;;;0.40;0.40;;;13.40;99.90;;;;;;5018582;28;20018;-89
2022/12/31 04:26:37;;;;;;;0.40;0.40;;;13.40;99.90;;;;;;5033806;28;20029;-90
2022/12/31 04:29:03;;;;;;;0.30;0.30;;;13.40;99.90;;;;;;5018203;28;20022;-90
2022/12/31 04:31:28;;;;;;;0.47;0.47;;;13.50;99.90;;;;;;5025646;28;20382;-90
2022/12/31 04:33:54;;;;;;;0.40;0.40;;;13.50;99.90;;;;;;5035202;28;20026;-90
2022/12/31 04:36:19;;;;;;;0.70;0.50;;;13.60;99.90;;;;;;5030821;28;20065;-89
2022/12/31 04:38:45;;;;;;;0.55;0.40;;;13.60;99.90;;;;;;5024733;28;20026;-89
2022/12/31 04:41:17;;;;;;;0.30;0.30;;;13.70;99.90;;;;;;5021968;28;20030;-90
2022/12/31 04:43:44;;;;;;;0.40;0.40;;;13.70;99.90;;;;;;5032683;28;20049;-90
2022/12/31 04:46:10;;;;;;;0.40;0.40;;;13.60;99.90;;;;;;5034539;28;20026;-89
2022/12/31 04:48:36;;;;;;;0.40;0.40;;;13.60;99.90;;;;;;5030263;28;20444;-91
2022/12/31 04:51:02;;;;;;;0.47;0.40;;;13.70;99.90;;;;;;5028133;28;20037;-90
2022/12/31 04:53:28;;;;;;;0.45;0.45;;;13.60;99.90;;;;;;5031024;28;20485;-90
2022/12/31 04:55:53;;;;;;;0.40;0.40;;;13.60;99.90;;;;;;5029923;28;20025;-84
2022/12/31 04:58:19;;;;;;;0.80;0.40;;;13.60;99.90;;;;;;5025265;28;20029;-84
2022/12/31 05:00:48;;;;;;;0.30;0.30;;;13.60;99.90;;;;;;5029101;28;20029;-84
2022/12/31 05:03:17;;;;;;;0.68;0.68;;;13.60;99.90;;;;;;5026348;28;20036;-84
2022/12/31 05:05:43;;;;;;;0.52;0.40;;;13.70;99.90;;;;;;5018972;28;20018;-85
2022/12/31 05:08:10;;;;;;;1.55;0.50;;;13.60;99.90;;;;;;5026628;28;20423;-84
2022/12/31 05:10:36;;;;;;;0.93;0.40;;;13.70;99.90;;;;;;5028475;28;20022;-85
2022/12/31 05:13:02;;;;;;;0.40;0.40;;;13.70;99.90;;;;;;5024111;28;20072;-84
2022/12/31 05:15:27;;;;;;;0.30;0.30;;;13.70;99.90;;;;;;5022243;28;20101;-84
2022/12/31 05:17:53;;;;;;;0.40;0.40;;;13.70;99.90;;;;;;5023793;28;20065;-86
2022/12/31 05:20:18;;;;;;;0.85;0.30;;;13.70;99.90;;;;;;5023100;28;20037;-85
2022/12/31 05:22:44;;;;;;;1.58;0.40;;;13.80;99.90;;;;;;5028971;28;20184;-85
2022/12/31 05:25:09;;;;;;;0.40;0.40;;;13.80;99.90;;;;;;5032279;28;20101;-85
2022/12/31 05:27:36;;;;;;;0.30;0.30;;;13.90;99.90;;;;;;5024975;28;20208;-91
2022/12/31 05:30:04;;;;;;;0.75;0.40;;;13.80;99.90;;;;;;5025795;28;20942;-91
2022/12/31 05:32:30;;;;;;;0.73;0.50;;;13.80;99.90;;;;;;5031096;28;20041;-91
2022/12/31 05:34:56;;;;;;;1.00;0.70;;;13.80;99.90;;;;;;5024161;28;20036;-92
2022/12/31 05:37:22;;;;;;;0.60;0.57;;;13.80;99.90;;;;;;5031051;28;20466;-92
2022/12/31 05:39:47;;;;;;;0.45;0.40;;;13.70;99.90;;;;;;5015125;28;20037;-92
2022/12/31 05:42:13;;;;;;;0.60;0.40;;;13.70;99.90;;;;;;5022957;28;20036;-91
2022/12/31 05:44:38;;;;;;;0.65;0.40;;;13.70;99.90;;;;;;5025371;28;20076;-91
2022/12/31 05:47:04;;;;;;;0.77;0.52;;;13.70;99.90;;;;;;5016765;28;20065;-92
2022/12/31 05:49:29;;;;;;;0.38;0.30;;;13.60;99.90;;;;;;5023922;28;20159;-91
2022/12/31 05:51:55;;;;;;;1.02;0.50;;;13.50;99.90;;;;;;5025161;28;20026;-91
2022/12/31 05:54:20;;;;;;;1.02;0.73;;;13.50;99.90;;;;;;5032993;28;20063;-90
2022/12/31 05:56:46;;;;;;;0.50;0.47;;;13.50;99.90;;;;;;5028401;28;20045;-91
2022/12/31 05:59:11;;;;;;;0.40;0.40;;;13.40;99.90;;;;;;5032276;28;20037;-91
2022/12/31 06:01:37;;;;;;;1.33;0.50;;;13.30;99.90;;;;;;5025596;28;20036;-90
2022/12/31 06:04:02;;;;;;;0.63;0.40;;;13.20;99.90;;;;;;5025215;28;20471;-92
2022/12/31 06:06:28;;;;;;;0.50;0.40;;;13.20;99.90;;;;;;5031942;28;20024;-91
2022/12/31 06:08:53;;;;;;;0.40;0.40;;;13.10;99.90;;;;;;5019548;28;20080;-91
2022/12/31 06:11:19;;;;;;;0.55;0.43;;;13.10;99.90;;;;;;5027356;28;20176;-91
2022/12/31 06:13:44;;;;;;;1.90;0.50;;;13.10;99.90;;;;;;5028152;28;20032;-91
2022/12/31 06:16:12;;;;;;;0.40;0.40;;;13.00;99.90;;;;;;5018608;28;20014;-92
2022/12/31 06:18:38;;;;;;;0.80;0.52;;;13.00;99.90;;;;;;5006153;28;20054;-92
2022/12/31 06:21:03;;;;;;;1.55;0.40;;;13.00;99.90;;;;;;5027215;28;20486;-92
2022/12/31 06:23:30;;;;;;;0.40;0.40;;;12.90;99.90;;;;;;5024832;28;20137;-91
2022/12/31 06:25:56;;;;;;;0.70;0.30;;;12.90;99.90;;;;;;5021112;28;20773;-93
2022/12/31 06:28:21;;;;;;;0.50;0.40;;;12.80;99.90;;;;;;5015245;28;20040;-91
2022/12/31 06:30:47;;;;;;;1.00;0.50;;;12.80;99.90;;;;;;5026628;28;20036;-84
2022/12/31 06:33:13;;;;;;;0.38;0.38;;;12.80;99.90;;;;;;5016211;28;20382;-84
2022/12/31 06:35:38;;;;;;;1.85;0.50;;;12.70;99.90;;;;;;5024836;28;20064;-84
2022/12/31 06:38:04;;;;;;;0.40;0.40;;;12.70;99.90;;;;;;5021791;28;20083;-84
2022/12/31 06:40:30;;;;;;;0.73;0.40;;;12.70;99.90;;;;;;5019112;28;20449;-84
2022/12/31 06:42:55;;;;;;;0.40;0.40;;;12.60;99.90;;;;;;5024577;28;20033;-85
2022/12/31 06:45:21;;;;;;;1.27;0.55;;;12.60;99.90;;;;;;5025726;28;20417;-84
2022/12/31 06:47:46;;;;;;;0.55;0.50;;;12.50;99.90;;;;;;5023041;28;20037;-85
2022/12/31 06:50:12;;;;;;;1.52;0.50;;;12.40;99.90;;;;;;5023661;28;20028;-85
2022/12/31 06:52:37;;;;;;;0.90;0.40;;;12.40;99.90;;;;;;5017922;28;20038;-84
2022/12/31 06:55:04;;;;;;;0.98;0.63;;;12.40;99.90;;;;;;5022833;28;20018;-84
2022/12/31 06:57:30;;;;;;;0.80;0.50;;;12.30;99.90;;;;;;5020687;28;20033;-84
2022/12/31 06:59:56;;;;;;;1.27;0.40;;;12.30;99.90;;;;;;5021114;28;20042;-84
2022/12/31 07:02:43;;;;;;;0.70;0.60;;;12.30;99.90;;;;;;5018541;28;20493;-84
2022/12/31 07:05:20;;;;;;;0.43;0.40;;;12.30;99.90;;;;;;5019918;28;20112;-83
2022/12/31 07:07:52;;;;;;;1.25;0.60;;;12.30;99.90;;;;;;5019640;28;20026;-84
2022/12/31 07:10:40;;;;;;;0.40;0.40;;;12.30;99.90;;;;;;5020580;28;20025;-84
2022/12/31 07:13:28;;;;;;;1.90;0.40;;;12.40;99.90;;;;;;5020169;28;20030;-84
2022/12/31 07:16:06;;;;;;;1.23;0.50;;;12.30;99.90;;;;;;5028142;28;20061;-84
2022/12/31 07:19:00;;;;;;;1.85;0.50;;;12.40;99.90;;;;;;5014163;28;20441;-85
2022/12/31 07:21:36;;;;;;;0.90;0.57;;;12.30;99.90;;;;;;5024732;28;20056;-84
2022/12/31 07:24:04;;;;;;;0.68;0.40;;;12.30;99.90;;;;;;5041632;28;20373;-88
2022/12/31 07:26:45;;;;;;;0.55;0.50;;;12.30;99.90;;;;;;5021935;28;20088;-88
2022/12/31 07:29:27;;;;;;;0.52;0.43;;;12.40;99.90;;;;;;5025868;28;20017;-88
2022/12/31 07:32:24;;;;;;;2.45;0.50;;;12.40;99.90;;;;;;5024415;28;20022;-88
2022/12/31 07:35:05;;;;;;;0.50;0.50;;;12.40;99.90;;;;;;5011765;28;20119;-88
2022/12/31 07:37:37;;;;;;;0.52;0.50;;;12.50;99.90;;;;;;5022864;28;20108;-89
2022/12/31 07:40:14;;;;;;;0.52;0.50;;;12.50;99.90;;;;;;5024151;28;20037;-88
2022/12/31 07:42:52;;;;;;;1.38;0.80;;;12.50;99.90;;;;;;5020856;28;20030;-90
2022/12/31 07:45:38;;;;;;;1.73;0.70;;;12.50;99.90;;;;;;5020803;28;20029;-88
2022/12/31 07:48:23;;;;;;;1.65;0.57;;;12.50;99.90;;;;;;5019516;28;20022;-84
2022/12/31 07:50:49;;;;;;;2.15;0.63;;;12.50;99.90;;;;;;5027907;28;20060;-84
2022/12/31 07:53:15;;;;;;;2.60;0.85;;;12.60;99.90;;;;;;5023989;28;20048;-84
2022/12/31 07:55:41;;;;;;;0.75;0.57;;;12.60;99.90;;;;;;5021867;28;20465;-84
2022/12/31 07:58:28;;;;;;;1.75;0.82;;;12.60;99.90;;;;;;5026710;28;20021;-84
2022/12/31 08:00:55;;;;;;;2.50;1.55;;;12.50;99.90;;;;;;5027751;28;20029;-84
2022/12/31 08:03:35;;;;;;;4.80;2.60;;;12.50;99.90;;;;;;5024047;28;20018;-84
2022/12/31 08:06:20;;;;;;;4.57;2.70;;;12.60;99.90;;;;;;5024051;28;20028;-84
2022/12/31 08:08:57;;;;;;;3.05;1.77;;;12.60;99.90;;;;;;5023918;28;20030;-84
2022/12/31 08:11:51;;;;;;;3.08;1.30;;;12.60;99.90;;;;;;5022621;28;20029;-85
2022/12/31 08:14:18;;;;;;;1.25;0.93;;;12.60;99.90;;;;;;5028912;28;20055;-84
2022/12/31 08:16:44;;;;;;;1.00;0.85;;;12.60;99.90;;;;;;5020434;28;20375;-85
2022/12/31 08:19:30;;;;;;;1.20;1.00;;;12.70;99.90;;;;;;5021687;28;20046;-84
2022/12/31 08:22:02;;;;;;;1.60;1.10;;;12.70;99.90;;;;;;5026579;28;20032;-84
2022/12/31 08:24:53;;;;;;;1.73;0.93;;;12.80;99.90;;;;;;5025720;28;20053;-85
2022/12/31 08:27:39;;;;;;;1.70;0.98;;;12.80;99.90;;;;;;5024183;28;20029;-85
2022/12/31 08:30:07;;;;;;;;;;;12.80;99.90;;;;;;5021048;28;20029;-84
2022/12/31 08:32:45;;;;;;;3.00;1.05;;;12.80;99.90;;;;;;5025070;28;19905;-85
2022/12/31 08:35:26;;;;;;;1.73;0.88;;;12.80;99.90;;;;;;5029315;28;20072;-85
2022/12/31 08:38:19;;;;;;;1.85;0.80;;;12.80;99.90;;;;;;5024587;28;20029;-85
2022/12/31 08:41:04;;;;;;;3.97;1.33;;;12.80;99.90;;;;;;5017804;28;20095;-85
2022/12/31 08:43:38;;;;;;;1.95;0.90;;;12.80;99.90;;;;;;5025073;28;20350;-84
2022/12/31 08:46:13;;;;;;;1.27;0.80;;;12.90;99.90;;;;;;5027595;28;20083;-85
2022/12/31 08:48:41;;;;;;;0.98;0.75;;;13.00;99.90;;;;;;5023126;28;20041;-85
2022/12/31 08:51:18;;;;;;;1.35;0.80;;;13.10;99.90;;;;;;5021660;28;20034;-84
2022/12/31 08:53:44;;;;;;;1.23;0.77;;;13.20;99.90;;;;;;5024005;28;20021;-84
2022/12/31 08:56:17;;;;;;;1.38;0.70;;;13.30;99.90;;;;;;5019466;28;20044;-85
2022/12/31 08:58:54;;;;;;;2.85;0.80;;;13.40;99.90;;;;;;5024164;28;20975;-85
2022/12/31 09:01:23;;;;;;;1.55;0.70;;;13.60;99.90;;;;;;5024471;28;20532;-85
2022/12/31 09:04:07;;;;;;;0.65;0.65;;;13.70;99.90;;;;;;5026433;28;20030;-84
2022/12/31 09:06:39;;;;;;;2.15;0.57;;;13.80;99.90;;;;;;5025056;28;20316;-85
2022/12/31 09:09:38;;;;;;;1.30;0.70;;;13.90;99.90;;;;;;5027238;28;20018;-84
2022/12/31 09:12:29;;;;;;;0.70;0.60;;;14.00;99.90;;;;;;5021604;28;20382;-84
2022/12/31 09:15:08;;;;;;;2.40;0.60;;;14.20;99.90;;;;;;5013296;28;20110;-85
2022/12/31 09:17:48;;;;;;;1.02;0.70;;;14.20;99.90;;;;;;5046220;28;20026;-85
2022/12/31 09:20:20;;;;;;;0.88;0.60;;;14.40;99.90;;;;;;5021534;28;20038;-85
2022/12/31 09:22:48;;;;;;;0.85;0.70;;;14.40;99.90;;;;;;5017073;28;20035;-85
2022/12/31 09:25:23;;;;;;;1.05;0.70;;;14.50;99.90;;;;;;5020634;28;20029;-85
2022/12/31 09:28:33;;;;;;;1.08;0.50;;;14.60;99.90;;;;;;5033423;28;20109;-89
2022/12/31 09:31:10;;;;;;;0.45;0.45;;;14.70;99.90;;;;;;5027430;28;20116;-82
2022/12/31 09:33:43;;;;;;;0.40;0.40;;;14.70;99.90;;;;;;5017853;28;20029;-82
2022/12/31 09:36:18;;;;;;;0.77;0.70;;;14.80;99.90;;;;;;5017089;28;21450;-81
2022/12/31 09:39:08;;;;;;;1.77;0.70;;;14.90;99.90;;;;;;5015311;28;20120;-83
2022/12/31 09:41:44;;;;;;;1.58;0.68;;;14.80;99.90;;;;;;5016683;28;20022;-83
2022/12/31 09:44:31;;;;;;;1.27;0.80;;;14.90;99.90;;;;;;5019828;28;20113;-83
2022/12/31 09:46:57;;;;;;;3.00;0.60;;;14.90;99.90;;;;;;5016730;28;20030;-84
2022/12/31 09:49:28;;;;;;;1.42;0.90;;;15.00;99.90;;;;;;5014541;28;20072;-82
2022/12/31 09:52:02;;;;;;;1.20;0.80;;;15.00;99.90;;;;;;5012327;28;20034;-83
2022/12/31 09:54:54;;;;;;;0.85;0.60;;;15.10;99.90;;;;;;5009815;28;20040;-82
2022/12/31 09:57:45;;;;;;;1.00;0.70;;;15.30;99.90;;;;;;5005630;28;20033;-83
2022/12/31 10:00:20;;;;;;;2.30;0.82;;;15.40;99.90;;;;;;5004333;28;20129;-82
2022/12/31 10:02:59;;;;;;;1.63;0.70;;;15.60;99.90;;;;;;5006889;28;20131;-82
2022/12/31 10:05:37;;;;;;;1.27;0.57;;;15.80;99.90;;;;;;5006638;28;20031;-82
2022/12/31 10:08:16;;;;;;;0.60;0.60;;;15.90;99.90;;;;;;5008033;28;20026;-83
2022/12/31 10:10:50;;;;;;;2.38;0.70;;;16.00;99.90;;;;;;5005419;28;20024;-82
2022/12/31 10:13:28;;;;;;;2.80;0.80;;;16.20;99.90;;;;;;5006179;28;20082;-82
2022/12/31 10:16:04;;;;;;;3.28;0.75;;;16.40;99.90;;;;;;5007803;28;20095;-82
2022/12/31 10:18:48;;;;;;;2.38;0.65;;;16.50;99.90;;;;;;5005162;28;20394;-83
2022/12/31 10:21:41;;;;;;;0.50;0.50;;;16.70;99.90;;;;;;5005131;28;20037;-82
2022/12/31 10:24:18;;;;;;;2.78;0.73;;;16.70;99.90;;;;;;5005825;28;20026;-83
2022/12/31 10:27:09;;;;;;;1.30;0.70;;;16.70;99.90;;;;;;5006422;28;20471;-83
2022/12/31 10:30:00;;;;;;;3.55;0.90;;;16.60;99.90;;;;;;5004561;28;20813;-82
2022/12/31 10:33:04;;;;;;;3.33;0.80;;;16.60;99.90;;;;;;5004918;28;20044;-82
2022/12/31 10:35:57;;;;;;;4.45;0.90;;;16.40;99.90;;;;;;4994176;28;20041;-82
2022/12/31 10:38:22;;;;;;;1.38;0.77;;;16.30;99.90;;;;;;5006933;28;20088;-85
2022/12/31 10:41:03;;;;;;;2.00;0.75;;;16.20;99.90;;;;;;5004716;28;20034;-85
2022/12/31 10:43:59;;;;;;;2.10;0.90;;;16.20;99.90;;;;;;5005593;28;20030;-85
2022/12/31 10:46:55;;;;;;;2.38;0.75;;;16.10;99.90;;;;;;5006843;28;20029;-85
2022/12/31 10:49:49;;;;;;;3.28;0.98;;;16.00;99.90;;;;;;5007532;28;20609;-85
2022/12/31 10:52:29;;;;;;;3.40;0.98;;;15.90;99.90;;;;;;5007484;28;20125;-85
2022/12/31 10:55:12;;;;;;;6.63;1.08;;;15.80;99.90;;;;;;5007658;28;20736;-85
2022/12/31 10:58:23;;;;;;;1.58;0.70;;;15.80;99.90;;;;;;5004925;28;20034;-85
2022/12/31 11:01:26;;;;;;;1.65;0.77;;;15.70;99.90;;;;;;5004098;28;20038;-85
2022/12/31 11:04:20;;;;;;;2.83;0.80;;;15.70;99.90;;;;;;5006964;28;20041;-85
2022/12/31 11:07:06;;;;;;;3.72;1.00;;;15.70;99.90;;;;;;5021214;28;20607;-85
2022/12/31 11:09:40;;;;;;;4.72;1.20;;;15.70;99.90;;;;;;5006084;28;20390;-85
2022/12/31 11:12:44;;;;;;;4.38;1.52;;;15.70;99.90;;;;;;5006994;28;20038;-85
2022/12/31 11:15:17;;;;;;;3.47;1.63;;;15.60;99.90;;;;;;5010783;28;20036;-86
2022/12/31 11:17:55;;;;;;;7.57;1.85;;;15.60;99.90;;;;;;5013553;28;20037;-85
2022/12/31 11:20:39;;;;;;;6.68;3.50;;;15.60;99.90;;;;;;5013827;28;20049;-85
2022/12/31 11:23:32;;;;;;;7.20;2.53;;;15.70;99.90;;;;;;5013344;28;20105;-86
2022/12/31 11:26:35;;;;;;;3.78;2.45;;;15.70;99.90;;;;;;5014932;28;20539;-85
2022/12/31 11:29:07;;;;;;;4.85;2.80;;;15.70;99.90;;;;;;5012477;28;20022;-85
2022/12/31 11:32:03;;;;;;;3.33;1.83;;;15.90;99.90;;;;;;5018105;28;20037;-86
2022/12/31 11:34:37;;;;;;;12.13;6.25;;;15.90;99.90;;;;;;5014083;28;20686;-85
2022/12/31 11:37:05;;;;;;;6.32;4.20;;;16.00;99.90;;;;;;5013206;28;20060;-85
2022/12/31 11:39:52;;;;;;;4.07;2.63;;;16.00;99.90;;;;;;5015515;28;20033;-86
2022/12/31 11:42:54;;;;;;;5.55;3.50;;;16.10;99.90;;;;;;5013117;28;20128;-86
2022/12/31 11:45:49;;;;;;;4.55;3.53;;;16.20;99.90;;;;;;5011537;28;20423;-85
2022/12/31 11:48:23;;;;;;;4.00;3.00;;;16.30;99.90;;;;;;5012238;28;20044;-86
2022/12/31 11:50:54;;;;;;;2.83;1.85;;;16.30;99.90;;;;;;5013101;28;20030;-85
2022/12/31 11:53:35;;;;;;;1.05;0.95;;;16.40;99.90;;;;;;5015552;28;20077;-86
2022/12/31 11:56:19;;;;;;;1.33;1.00;;;16.50;99.90;;;;;;5015341;28;20021;-85
2022/12/31 11:58:48;;;;;;;1.73;1.02;;;16.50;99.90;;;;;;5018496;28;20508;-85
2022/12/31 12:01:23;;;;;;;6.18;1.30;;;16.60;99.90;;;;;;5019098;28;20048;-85
2022/12/31 12:03:49;;;;;;;1.00;0.82;;;16.60;99.90;;;;;;5030421;28;20021;-85
2022/12/31 12:06:28;;;;;;;0.95;0.80;;;16.60;99.90;;;;;;5019696;28;20084;-85
2022/12/31 12:09:10;;;;;;;0.93;0.70;;;16.70;99.90;;;;;;5018028;28;20025;-85
2022/12/31 12:11:38;;;;;;;1.13;0.88;;;16.70;99.90;;;;;;5018551;28;20044;-86
2022/12/31 12:14:29;;;;;;;2.17;1.10;;;16.90;99.90;;;;;;5015454;28;20036;-86
2022/12/31 12:16:57;;;;;;;3.20;1.20;;;17.00;99.90;;;;;;5017397;28;20037;-85
2022/12/31 12:19:25;;;;;;;1.52;0.90;;;17.10;99.90;;;;;;5018802;28;20343;-85
2022/12/31 12:21:52;;;;;;;2.75;1.10;;;17.30;99.90;;;;;;5389667;22;20055;-95
2022/12/31 12:24:28;;;;;;;5.93;1.10;;;17.40;99.90;;;;;;4996925;28;20043;-85
2022/12/31 12:26:56;;;;;;;1.65;1.02;;;17.50;99.90;;;;;;4993185;28;20487;-85
2022/12/31 12:29:29;;;;;;;3.70;1.15;;;17.50;99.90;;;;;;4987849;28;20061;-85
2022/12/31 12:32:00;;;;;;;1.77;0.77;;;17.60;99.90;;;;;;4986723;28;20034;-85
2022/12/31 12:34:36;;;;;;;1.40;0.80;;;17.60;99.90;;;;;;4985644;28;20018;-85
2022/12/31 12:37:02;;;;;;;1.65;0.90;;;17.60;99.90;;;;;;4985349;28;20037;-85
2022/12/31 12:39:31;;;;;;;1.70;0.90;;;17.60;99.90;;;;;;4988146;28;20348;-85
2022/12/31 12:42:13;;;;;;;0.98;0.82;;;17.70;99.90;;;;;;4986310;28;20103;-85
2022/12/31 12:44:40;;;;;;;1.63;0.90;;;17.70;99.90;;;;;;4985258;28;20158;-85
2022/12/31 12:47:12;;;;;;;2.28;1.00;;;17.70;99.90;;;;;;4988452;28;20033;-85
2022/12/31 12:49:45;;;;;;;2.67;0.88;;;17.70;99.90;;;;;;4985716;28;20126;-85
2022/12/31 12:52:39;;;;;;;1.10;0.80;;;17.80;99.90;;;;;;4987003;28;20034;-85
2022/12/31 12:55:39;;;;;;;1.00;0.70;;;17.80;99.90;;;;;;4987985;28;20108;-85
2022/12/31 12:58:23;;;;;;;1.75;0.82;;;17.80;99.90;;;;;;4964140;28;20926;-86
2022/12/31 13:01:01;;;;;;;3.47;0.90;;;17.80;99.90;;;;;;4981594;28;20038;-86
2022/12/31 13:03:48;;;;;;;1.35;0.80;;;17.70;99.90;;;;;;4985749;28;20022;-86
2022/12/31 13:06:26;;;;;;;1.40;1.00;;;17.70;99.90;;;;;;4982075;28;20027;-85
2022/12/31 13:09:28;;;;;;;1.95;0.77;;;17.70;99.90;;;;;;4984773;28;20371;-85
2022/12/31 13:12:21;;;;;;;1.30;0.95;;;17.60;99.90;;;;;;4986112;28;20610;-85
2022/12/31 13:15:02;;;;;;;0.90;0.73;;;17.50;99.90;;;;;;4986081;28;20093;-85
2022/12/31 13:17:56;;;;;;;1.65;0.88;;;17.40;99.90;;;;;;4985903;28;20456;-85
2022/12/31 13:20:29;;;;;;;3.28;0.93;;;17.40;99.90;;;;;;4985676;28;20030;-85
2022/12/31 13:23:26;;;;;;;1.45;0.80;;;17.30;99.90;;;;;;4986297;28;20045;-85
2022/12/31 13:26:11;;;;;;;1.52;0.85;;;17.20;99.90;;;;;;4983815;28;20117;-85
2022/12/31 13:28:41;;;;;;;;;;;17.20;99.90;;;;;;4983927;28;20483;-85
2022/12/31 13:31:13;;;;;;;1.63;1.05;;;17.10;99.90;;;;;;4981960;28;20669;-83